Monday, July 23, 2018, 2:10 AM EDT
Back to Local

KNFE, Fentress Nalf

Location: Chesapeake, VA, United States Lat: 36.7
Local Time: 2:10 AM EDT ( 6:10 GMT) Lon: -76.133
Time Zone: US/Eastern Elev: 13 ft

Show me the last for .
Show Decoded

2018-07-23 00:56 METAR KNFE 230456Z AUTO 15003KT 10SM CLR 24/22 A2987 RMK AO2 RAB02E19 TSB19E43
                 SLP117 P0000 T02390217 403330211 $ =
2018-07-23 00:49 METAR KNFE 230449Z AUTO 00000KT 10SM CLR 24/22 A2987 RMK AO2 RAB02E19 TSB19E43
                 P0000 T02390217 $ =
2018-07-22 23:56 METAR KNFE 230356Z AUTO 18008G17KT 10SM TS FEW060 25/22 A2990 RMK AO2 TSB41
                 SLP128 T02500217 $ =
2018-07-22 23:47 METAR KNFE 230347Z AUTO 18011G17KT 10SM TS CLR 25/22 A2991 RMK AO2 TSB41 PRESRR
                 T02500222 $ =
2018-07-22 22:56 METAR KNFE 230256Z AUTO 18009KT 10SM FEW014 BKN042 BKN070 26/22 A2988 RMK AO2
                 RAB19E53 TSB23E39 SLP120 P0001 60001 T02560222 51021 $ =
2018-07-22 22:45 METAR KNFE 230245Z AUTO 20008KT 170V250 9SM -RA FEW016 BKN043 BKN100 26/23 A2988
                 RMK AO2 RAB19 TSB23E39 P0001 T02610233 $ =
2018-07-22 22:35 METAR KNFE 230235Z AUTO 18010KT 10SM -TSRA SCT018 BKN043 BKN070 27/24 A2987 RMK
                 AO2 RAB19 TSB23 P0000 T02720239 $ =
2018-07-22 21:56 METAR KNFE 230156Z AUTO 17012G16KT 10SM TS FEW017 BKN024 29/26 A2987 RMK AO2
                 RAB08E17 TSE09B55 SLP116 P0000 T02890256 $ =
2018-07-22 21:31 METAR KNFE 230131Z AUTO 15009KT 10SM BKN020 BKN026 BKN041 29/26 A2986 RMK AO2
                 RAB08E17 TSE09 P0000 T02890256 $ =
2018-07-22 21:09 METAR KNFE 230109Z AUTO 14008KT 10SM -RA SCT022 SCT027 BKN043 29/26 A2984 RMK
                 AO2 RAB08 TSE09 P0000 T02890256 $ =
2018-07-22 20:56 METAR KNFE 230056Z AUTO 14009KT 10SM TS BKN024 BKN034 BKN055 29/26 A2984 RMK AO2
                 TSB40 SLP107 T02890256 $ =
2018-07-22 20:48 METAR KNFE 230048Z AUTO 15010KT 10SM TS BKN024 BKN038 OVC060 29/26 A2984 RMK AO2
                 TSB40 T02890256 $ =
2018-07-22 20:40 METAR KNFE 230040Z AUTO 15010KT 10SM TS FEW020 BKN032 OVC060 29/26 A2984 RMK AO2
                 TSB40 T02890256 $ =
2018-07-22 20:27 METAR KNFE 230027Z AUTO 15009KT 10SM FEW022 BKN029 BKN035 29/26 A2983 RMK AO2
                 T02940256 $ =
2018-07-22 20:18 METAR KNFE 230018Z AUTO 15010KT 10SM SCT027 BKN031 BKN039 29/26 A2983 RMK AO2
                 T02940256 $ =
2018-07-22 19:56 METAR KNFE 222356Z AUTO 15010KT 10SM BKN025 BKN032 OVC041 29/26 A2982 RMK AO2
                 SLP099 T02940256 10333 20294 52011 $ =
2018-07-22 19:43 METAR KNFE 222343Z AUTO 15010KT 10SM BKN027 BKN034 30/26 A2981 RMK AO2 T03000256
                 $ =
2018-07-22 18:56 METAR KNFE 222256Z AUTO 15011KT 10SM FEW027 SCT034 31/25 A2980 RMK AO2 SLP094
                 T03110250 $ =
2018-07-22 17:56 METAR KNFE 222156Z AUTO 15013G21KT 10SM SCT040 31/25 A2980 RMK AO2 SLP093
                 T03110250 $ =
2018-07-22 16:56 METAR KNFE 222056Z AUTO 15016KT 10SM FEW026 FEW033 32/26 A2979 RMK AO2 SLP088
                 T03170256 55004 $ =
2018-07-22 15:56 METAR KNFE 221956Z AUTO 14016G22KT 10SM SCT029 SCT040 32/25 A2977 RMK AO2 SLP083
                 T03220250 $ =
2018-07-22 14:56 METAR KNFE 221856Z AUTO 15013G23KT 10SM CLR 33/26 A2978 RMK AO2 PK WND
                 14026/1836 SLP085 T03280256 $ =
2018-07-22 13:56 METAR KNFE 221756Z AUTO 15014KT 10SM FEW025 33/25 A2980 RMK AO2 SLP092 T03280250
                 10328 20267 58009 $ =
2018-07-22 12:56 METAR KNFE 221656Z AUTO 15010KT 10SM FEW040 SCT055 32/24 A2982 RMK AO2 SLP098
                 T03220239 $ =
2018-07-22 11:56 METAR KNFE 221556Z AUTO 15008KT 10SM BKN100 31/23 A2982 RMK AO2 SLP099 T03060233
                 $ =
2018-07-22 10:56 METAR KNFE 221456Z AUTO 15011G18KT 10SM FEW029 BKN120 31/22 A2982 RMK AO2 SLP101
                 T03110222 51007 $ =
2018-07-22 09:56 METAR KNFE 221356Z AUTO 17012G16KT 10SM FEW024 FEW032 SCT050 31/24 A2982 RMK AO2
                 SLP101 T03060244 =
2018-07-22 09:12 METAR KNFE 221312Z AUTO VRB06KT 10SM SCT015 SCT020 29/25 A2983 RMK AO2 T02890250
                 =
2018-07-22 08:56 METAR KNFE 221256Z AUTO 17008KT 10SM BKN013 BKN019 BKN024 28/25 A2983 RMK AO2
                 SLP103 T02830250 =
2018-07-22 07:56 METAR KNFE 221156Z AUTO 16004KT 10SM BKN010 27/24 A2980 RMK AO2 SLP094 60002
                 70185 T02670244 10267 20211 53007 =
2018-07-22 07:35 METAR KNFE 221135Z AUTO 00000KT 10SM SCT015 25/23 A2980 RMK AO2 T02500233 =
2018-07-22 07:26 METAR KNFE 221126Z AUTO 00000KT 10SM BKN015 25/23 A2980 RMK AO2 T02500228 =
2018-07-22 07:13 METAR KNFE 221113Z AUTO 00000KT 10SM OVC014 24/22 A2979 RMK AO2 T02390222 =
2018-07-22 06:56 METAR KNFE 221056Z AUTO 00000KT 10SM SCT008 OVC016 24/22 A2979 RMK AO2 SLP091
                 T02390222 =
2018-07-22 05:59 METAR KNFE 220959Z AUTO 00000KT 10SM BKN009 OVC014 23/22 A2979 RMK AO2 CIG
                 009V013 T02330217 =
2018-07-22 05:56 METAR KNFE 220956Z AUTO 00000KT 10SM BKN012 OVC022 23/22 A2979 RMK AO2 RAB07E31
                 SLP089 P0002 T02330217 =
2018-07-22 05:25 METAR KNFE 220925Z AUTO 00000KT 10SM -RA BKN014 BKN024 OVC033 23/21 A2978 RMK
                 AO2 RAB07 P0002 T02280211 =
2018-07-22 04:56 METAR KNFE 220856Z AUTO 00000KT 10SM OVC015 22/21 A2978 RMK AO2 RAB45E55 SLP086
                 P0000 60000 T02220206 56003 =
2018-07-22 04:19 METAR KNFE 220819Z AUTO 00000KT 10SM BKN019 BKN025 22/20 A2978 RMK AO2 T02170200
                 =
2018-07-22 03:56 METAR KNFE 220756Z AUTO 00000KT 10SM FEW027 SCT039 21/20 A2978 RMK AO2 SLP086
                 T02110200 =
2018-07-22 03:53 METAR KNFE 220753Z AUTO 00000KT 10SM SCT028 SCT039 22/20 A2978 RMK AO2 =
2018-07-22 03:15 METAR KNFE 220715Z AUTO 00000KT 10SM BKN027 22/20 A2979 RMK AO2 T02170200 =
2018-07-22 02:56 METAR KNFE 220656Z AUTO 00000KT 10SM CLR 22/20 A2979 RMK AO2 SLP089 T02170200 =

Support USWX by starting your Amazon purchase here.